Time;durP1;ratioP1;P1;durP2;ratioP2;P2;SDS_P1;SDS_P2;PMS_P1;PMS_P2;Temp;Humidity;BMP_temperature;BMP_pressure;BME280_temperature;BME280_humidity;BME280_pressure;Samples;Min_cycle;Max_cycle;Signal;HPM_P1;HPM_P2
2023/05/09 00:00:35;;;;;;;12.95;11.45;;;23.90;52.20;;;;;;5085041;28;20285;-61
2023/05/09 00:03:04;;;;;;;12.93;10.57;;;23.90;52.20;;;;;;5086779;28;20467;-62
2023/05/09 00:05:30;;;;;;;13.20;10.95;;;23.90;52.20;;;;;;5088600;28;20036;-60
2023/05/09 00:07:56;;;;;;;11.82;10.32;;;23.90;52.30;;;;;;5087179;28;20143;-59
2023/05/09 00:10:22;;;;;;;12.60;10.60;;;23.90;52.30;;;;;;5088662;28;20151;-59
2023/05/09 00:12:48;;;;;;;13.20;10.40;;;23.90;52.30;;;;;;5087118;28;20028;-59
2023/05/09 00:15:14;;;;;;;11.75;10.23;;;23.90;52.40;;;;;;5088430;28;20059;-61
2023/05/09 00:17:40;;;;;;;11.55;10.32;;;23.90;52.40;;;;;;5085988;28;20027;-59
2023/05/09 00:20:10;;;;;;;11.85;9.75;;;23.80;52.30;;;;;;5088410;28;20024;-63
2023/05/09 00:22:37;;;;;;;13.63;10.68;;;23.80;52.40;;;;;;5068411;28;20028;-59
2023/05/09 00:25:03;;;;;;;12.23;10.68;;;23.90;52.50;;;;;;5087733;28;20104;-64
2023/05/09 00:27:29;;;;;;;12.70;10.88;;;23.80;52.50;;;;;;5068252;28;20047;-62
2023/05/09 00:29:55;;;;;;;11.68;9.85;;;23.80;52.60;;;;;;5069536;28;20374;-60
2023/05/09 00:32:21;;;;;;;11.63;10.13;;;23.80;52.60;;;;;;5067791;28;20028;-62
2023/05/09 00:34:47;;;;;;;11.60;9.75;;;23.80;52.70;;;;;;5088373;28;20031;-63
2023/05/09 00:37:13;;;;;;;12.35;10.73;;;23.80;52.70;;;;;;5068426;28;20087;-60
2023/05/09 00:39:39;;;;;;;13.05;10.70;;;23.80;52.70;;;;;;5069218;28;20031;-62
2023/05/09 00:42:05;;;;;;;12.10;10.35;;;23.80;52.70;;;;;;5085856;28;20020;-60
2023/05/09 00:44:31;;;;;;;11.52;10.32;;;23.80;52.80;;;;;;5086655;28;20293;-60
2023/05/09 00:46:57;;;;;;;12.25;10.63;;;23.80;52.80;;;;;;5068363;28;20444;-60
2023/05/09 00:49:23;;;;;;;11.07;9.60;;;23.80;52.90;;;;;;5086673;28;20114;-63
2023/05/09 00:51:49;;;;;;;11.88;10.23;;;23.70;52.80;;;;;;5086255;28;20020;-59
2023/05/09 00:54:15;;;;;;;12.48;10.32;;;23.80;52.90;;;;;;5087600;28;20419;-61
2023/05/09 00:56:41;;;;;;;11.98;10.05;;;23.70;52.90;;;;;;5087733;28;20295;-60
2023/05/09 00:59:06;;;;;;;10.80;9.48;;;23.70;52.90;;;;;;5069684;28;20055;-62
2023/05/09 01:01:32;;;;;;;11.93;10.25;;;23.70;53.00;;;;;;5067653;28;20039;-61
2023/05/09 01:03:58;;;;;;;12.57;10.40;;;23.70;53.10;;;;;;5087504;28;20063;-60
2023/05/09 01:06:45;;;;;;;12.98;10.38;;;23.70;53.10;;;;;;5086625;28;20149;-62
2023/05/09 01:09:31;;;;;;;11.27;10.07;;;23.70;53.10;;;;;;5068322;28;20112;-61
2023/05/09 01:12:11;;;;;;;11.05;9.27;;;23.70;53.10;;;;;;5067032;28;20142;-61
2023/05/09 01:14:50;;;;;;;12.73;10.85;;;23.70;53.10;;;;;;5068254;28;20039;-61
2023/05/09 01:17:31;;;;;;;12.35;10.13;;;23.70;53.20;;;;;;5066497;28;20072;-60
2023/05/09 01:20:37;;;;;;;11.90;10.07;;;23.70;53.10;;;;;;5085089;28;20038;-63
2023/05/09 01:23:15;;;;;;;;;;;23.70;53.20;;;;;;5068621;28;20028;-60
2023/05/09 01:25:55;;;;;;;11.18;9.52;;;23.70;53.20;;;;;;5065007;28;20018;-62
2023/05/09 01:29:00;;;;;;;12.00;10.48;;;23.60;53.10;;;;;;5087309;28;20101;-60
2023/05/09 01:31:28;;;;;;;11.48;9.68;;;23.60;53.20;;;;;;5085231;28;20060;-60
2023/05/09 01:33:58;;;;;;;12.95;10.20;;;23.60;53.20;;;;;;5066876;28;20139;-61
2023/05/09 01:36:29;;;;;;;11.60;10.35;;;23.60;53.20;;;;;;5085781;28;20399;-62
2023/05/09 01:38:57;;;;;;;11.80;9.55;;;23.60;53.30;;;;;;5086211;28;20020;-61
2023/05/09 01:41:25;;;;;;;11.70;10.05;;;23.60;53.20;;;;;;5068760;28;20126;-61
2023/05/09 01:43:52;;;;;;;12.45;9.82;;;23.60;53.30;;;;;;5059158;28;20048;-62
2023/05/09 01:46:20;;;;;;;10.63;8.90;;;23.60;53.30;;;;;;5066687;28;20047;-64
2023/05/09 01:48:48;;;;;;;11.40;9.32;;;23.60;53.30;;;;;;5084266;28;20046;-61
2023/05/09 01:51:15;;;;;;;11.30;9.77;;;23.60;53.30;;;;;;5068668;28;20071;-60
2023/05/09 01:53:43;;;;;;;13.13;10.27;;;23.60;53.40;;;;;;5086205;28;20046;-60
2023/05/09 01:56:10;;;;;;;11.52;9.73;;;23.60;53.40;;;;;;5086901;28;20032;-61
2023/05/09 01:58:38;;;;;;;11.70;9.68;;;23.60;53.40;;;;;;5067658;28;20028;-62
2023/05/09 02:01:05;;;;;;;12.18;9.57;;;23.60;53.40;;;;;;5068863;28;20135;-63
2023/05/09 02:03:33;;;;;;;12.27;9.80;;;23.60;53.40;;;;;;5084913;28;20253;-62
2023/05/09 02:05:59;;;;;;;12.15;9.70;;;23.60;53.40;;;;;;5068931;28;20032;-64
2023/05/09 02:08:26;;;;;;;11.18;9.65;;;23.60;53.40;;;;;;5084488;28;20024;-63
2023/05/09 02:10:52;;;;;;;11.13;9.82;;;23.60;53.40;;;;;;5065156;28;20387;-63
2023/05/09 02:13:18;;;;;;;9.98;8.98;;;23.60;53.40;;;;;;5085567;28;20100;-62
2023/05/09 02:15:45;;;;;;;11.15;9.43;;;23.60;53.40;;;;;;5049749;28;20119;-61
2023/05/09 02:18:12;;;;;;;11.32;9.73;;;23.60;53.40;;;;;;5083844;28;20468;-64
2023/05/09 02:20:39;;;;;;;12.43;9.85;;;23.60;53.40;;;;;;5082599;28;20032;-61
2023/05/09 02:23:05;;;;;;;11.13;9.63;;;23.50;53.30;;;;;;5086441;28;20055;-61
2023/05/09 02:25:32;;;;;;;10.45;9.07;;;23.50;53.30;;;;;;5086331;28;20102;-61
2023/05/09 02:27:59;;;;;;;11.13;9.32;;;23.50;53.40;;;;;;5086034;28;20107;-62
2023/05/09 02:30:27;;;;;;;13.43;10.95;;;23.50;53.40;;;;;;5084407;28;20032;-63
2023/05/09 02:32:58;;;;;;;10.95;8.88;;;23.50;53.40;;;;;;5088249;28;20052;-60
2023/05/09 02:35:27;;;;;;;11.07;9.48;;;23.50;53.40;;;;;;5086585;28;20108;-62
2023/05/09 02:37:54;;;;;;;12.57;9.88;;;23.50;53.40;;;;;;5066841;28;20467;-61
2023/05/09 02:40:20;;;;;;;11.90;9.55;;;23.50;53.40;;;;;;5086829;28;20032;-60
2023/05/09 02:42:46;;;;;;;11.55;9.80;;;23.50;53.40;;;;;;5070891;28;20051;-62
2023/05/09 02:45:12;;;;;;;12.05;10.18;;;23.50;53.50;;;;;;5087952;28;20032;-60
2023/05/09 02:47:38;;;;;;;12.68;10.35;;;23.50;53.40;;;;;;5070851;28;20024;-61
2023/05/09 02:50:05;;;;;;;11.63;10.07;;;23.50;53.40;;;;;;5070717;28;20375;-59
2023/05/09 02:52:32;;;;;;;10.98;9.68;;;23.50;53.50;;;;;;5069982;28;20425;-60
2023/05/09 02:54:58;;;;;;;10.52;8.75;;;23.50;53.50;;;;;;5088962;28;20642;-63
2023/05/09 02:57:24;;;;;;;11.02;9.80;;;23.50;53.50;;;;;;5069222;28;20024;-60
2023/05/09 02:59:49;;;;;;;14.60;10.93;;;23.50;53.50;;;;;;5071004;28;20070;-61
2023/05/09 03:02:15;;;;;;;12.25;10.02;;;23.50;53.50;;;;;;5074225;28;20051;-59
2023/05/09 03:04:42;;;;;;;13.07;10.50;;;23.50;53.50;;;;;;5072838;28;20035;-59
2023/05/09 03:07:08;;;;;;;11.93;10.07;;;23.50;53.50;;;;;;5071541;28;20470;-61
2023/05/09 03:09:33;;;;;;;12.05;9.90;;;23.50;53.50;;;;;;5075060;28;20016;-60
2023/05/09 03:11:59;;;;;;;12.45;10.43;;;23.40;53.40;;;;;;5073699;28;20044;-62
2023/05/09 03:14:25;;;;;;;11.15;9.80;;;23.40;53.50;;;;;;5073859;28;20078;-60
2023/05/09 03:16:51;;;;;;;12.57;10.05;;;23.40;53.50;;;;;;5073392;28;20119;-62
2023/05/09 03:19:24;;;;;;;11.13;9.60;;;23.40;53.50;;;;;;5075037;28;20077;-61
2023/05/09 03:21:50;;;;;;;11.60;9.20;;;23.40;53.50;;;;;;5073249;28;20461;-62
2023/05/09 03:24:16;;;;;;;12.18;9.77;;;23.40;53.50;;;;;;5073634;28;20035;-60
2023/05/09 03:26:42;;;;;;;11.40;9.48;;;23.40;53.50;;;;;;5073300;28;20061;-61
2023/05/09 03:29:08;;;;;;;11.43;10.23;;;23.40;53.50;;;;;;5092051;28;20038;-58
2023/05/09 03:31:34;;;;;;;12.00;10.65;;;23.40;53.50;;;;;;5091012;28;20020;-61
2023/05/09 03:34:00;;;;;;;12.40;10.18;;;23.40;53.50;;;;;;5069424;28;20133;-59
2023/05/09 03:36:27;;;;;;;12.65;10.32;;;23.40;53.60;;;;;;5074206;28;20608;-61
2023/05/09 03:38:53;;;;;;;12.40;10.43;;;23.40;53.50;;;;;;5072270;28;20031;-60
2023/05/09 03:41:20;;;;;;;12.90;10.77;;;23.40;53.50;;;;;;5073295;28;20066;-59
2023/05/09 03:43:47;;;;;;;11.35;9.40;;;23.40;53.60;;;;;;5072042;28;20110;-62
2023/05/09 03:46:13;;;;;;;11.95;9.93;;;23.40;53.50;;;;;;5090602;28;20127;-61
2023/05/09 03:48:40;;;;;;;11.82;10.00;;;23.40;53.60;;;;;;5072947;28;20043;-62
2023/05/09 03:51:06;;;;;;;12.20;10.10;;;23.40;53.60;;;;;;5073945;28;20034;-61
2023/05/09 03:53:36;;;;;;;13.05;9.98;;;23.40;53.60;;;;;;5071898;28;20036;-60
2023/05/09 03:56:02;;;;;;;12.10;9.77;;;23.40;53.60;;;;;;5091610;28;20145;-61
2023/05/09 03:58:31;;;;;;;11.45;9.85;;;23.40;53.60;;;;;;5071317;28;20024;-63
2023/05/09 04:00:58;;;;;;;10.55;9.20;;;23.40;53.60;;;;;;5072950;28;20367;-64
2023/05/09 04:03:25;;;;;;;11.20;9.18;;;23.40;53.60;;;;;;5071866;28;20032;-61
2023/05/09 04:05:53;;;;;;;13.65;9.68;;;23.40;53.60;;;;;;5073488;28;20362;-63
2023/05/09 04:08:32;;;;;;;11.82;9.77;;;23.30;53.50;;;;;;5056759;28;20390;-59
2023/05/09 04:10:59;;;;;;;11.05;9.40;;;23.30;53.50;;;;;;5071807;28;20444;-59
2023/05/09 04:13:24;;;;;;;10.90;9.30;;;23.30;54.10;;;;;;5086940;28;20051;-60
2023/05/09 04:15:50;;;;;;;10.75;9.35;;;23.30;53.50;;;;;;5073854;28;20422;-60
2023/05/09 04:18:16;;;;;;;10.98;9.05;;;23.30;53.40;;;;;;5089994;28;20055;-61
2023/05/09 04:20:43;;;;;;;10.43;9.27;;;23.30;53.40;;;;;;5077254;28;20046;-60
2023/05/09 04:23:09;;;;;;;11.95;9.30;;;23.30;53.40;;;;;;5070289;28;20134;-61
2023/05/09 04:25:36;;;;;;;9.68;8.38;;;23.30;53.40;;;;;;5064425;28;20170;-60
2023/05/09 04:28:02;;;;;;;11.38;9.30;;;23.30;53.40;;;;;;5071885;28;20115;-61
2023/05/09 04:30:28;;;;;;;10.45;9.25;;;23.30;53.40;;;;;;5071988;28;20117;-60
2023/05/09 04:32:54;;;;;;;9.98;8.70;;;23.30;53.30;;;;;;5069757;28;20021;-61
2023/05/09 04:35:21;;;;;;;10.68;9.38;;;23.30;53.30;;;;;;5072155;28;20088;-62
2023/05/09 04:37:50;;;;;;;11.13;9.13;;;23.30;53.30;;;;;;5072924;28;20355;-61
2023/05/09 04:40:16;;;;;;;10.43;8.80;;;23.30;53.90;;;;;;5070994;28;20123;-61
2023/05/09 04:42:49;;;;;;;10.30;8.63;;;23.30;53.30;;;;;;5072392;28;20047;-61
2023/05/09 04:45:16;;;;;;;12.52;9.05;;;23.30;53.30;;;;;;5070691;28;20565;-60
2023/05/09 04:47:42;;;;;;;9.68;8.20;;;23.30;53.30;;;;;;5053816;28;20431;-63
2023/05/09 04:50:08;;;;;;;9.52;8.52;;;23.30;53.30;;;;;;5090389;28;20039;-62
2023/05/09 04:52:34;;;;;;;10.35;8.80;;;23.30;53.30;;;;;;5072208;28;20020;-61
2023/05/09 04:54:59;;;;;;;9.77;8.45;;;23.30;53.30;;;;;;5071342;28;20024;-60
2023/05/09 04:57:29;;;;;;;9.82;8.45;;;23.30;53.30;;;;;;5071969;28;20030;-64
2023/05/09 04:59:56;;;;;;;9.65;8.25;;;23.30;53.30;;;;;;5070251;28;20027;-63
2023/05/09 05:02:24;;;;;;;9.80;8.35;;;23.30;53.20;;;;;;5070990;28;20035;-61
2023/05/09 05:04:50;;;;;;;10.32;8.38;;;23.30;53.20;;;;;;5071696;28;20028;-61
2023/05/09 05:07:17;;;;;;;9.35;8.15;;;23.20;53.10;;;;;;5087247;28;20191;-62
2023/05/09 05:09:43;;;;;;;8.70;7.65;;;23.30;53.20;;;;;;5069940;28;20038;-59
2023/05/09 05:12:10;;;;;;;8.15;7.35;;;23.30;53.20;;;;;;5080794;28;20036;-60
2023/05/09 05:14:37;;;;;;;8.80;7.47;;;23.30;53.80;;;;;;5072054;28;20032;-62
2023/05/09 05:17:05;;;;;;;8.55;7.28;;;23.30;53.20;;;;;;5070256;28;20484;-60
2023/05/09 05:19:32;;;;;;;7.90;6.78;;;23.30;53.10;;;;;;5072213;28;20028;-60
2023/05/09 05:21:59;;;;;;;7.47;6.65;;;23.30;53.10;;;;;;5070694;28;20024;-62
2023/05/09 05:24:25;;;;;;;8.90;7.10;;;23.20;53.10;;;;;;5071867;28;20335;-59
2023/05/09 05:26:52;;;;;;;7.30;6.50;;;23.30;53.10;;;;;;5068005;28;20051;-62
2023/05/09 05:29:19;;;;;;;7.93;6.82;;;23.30;53.10;;;;;;5071849;28;20606;-62
2023/05/09 05:31:45;;;;;;;7.40;6.60;;;23.20;53.10;;;;;;5084595;28;20308;-60
2023/05/09 05:34:10;;;;;;;7.63;6.45;;;23.30;53.10;;;;;;5070214;28;20036;-61
2023/05/09 05:36:37;;;;;;;7.45;6.35;;;23.30;53.10;;;;;;5068597;28;20702;-64
2023/05/09 05:39:04;;;;;;;8.05;6.55;;;23.30;53.10;;;;;;5085122;28;20115;-59
2023/05/09 05:41:29;;;;;;;7.00;6.30;;;23.20;53.00;;;;;;5069845;28;20110;-63
2023/05/09 05:43:55;;;;;;;7.25;6.15;;;23.20;53.00;;;;;;5087443;28;20024;-63
2023/05/09 05:46:21;;;;;;;8.07;6.72;;;23.20;53.00;;;;;;5074921;28;20043;-63
2023/05/09 05:48:47;;;;;;;8.32;6.95;;;23.20;53.00;;;;;;5070647;28;20028;-61
2023/05/09 05:51:13;;;;;;;7.68;6.55;;;23.30;53.00;;;;;;5070403;28;20020;-60
2023/05/09 05:53:40;;;;;;;8.73;6.72;;;23.30;53.10;;;;;;5071153;28;20044;-61
2023/05/09 05:56:08;;;;;;;8.73;6.90;;;23.30;53.00;;;;;;5071788;28;20032;-61
2023/05/09 05:58:33;;;;;;;9.35;7.40;;;23.30;53.00;;;;;;5075961;28;20042;-63
2023/05/09 06:01:00;;;;;;;9.73;7.97;;;23.30;53.10;;;;;;5076591;28;20376;-62
2023/05/09 06:03:26;;;;;;;10.65;8.07;;;23.30;53.10;;;;;;5091527;28;20399;-61
2023/05/09 06:05:56;;;;;;;9.38;8.35;;;23.30;53.10;;;;;;5072314;28;20040;-63
2023/05/09 06:08:22;;;;;;;11.65;8.10;;;23.30;53.00;;;;;;5065219;28;20028;-63
2023/05/09 06:10:48;;;;;;;9.88;8.88;;;23.30;53.00;;;;;;5088916;28;20077;-61
2023/05/09 06:13:14;;;;;;;9.77;7.75;;;23.30;53.00;;;;;;5051314;28;20035;-59
2023/05/09 06:15:44;;;;;;;10.95;8.73;;;23.30;52.90;;;;;;5069463;28;20099;-59
2023/05/09 06:18:10;;;;;;;10.40;9.00;;;23.30;52.90;;;;;;5066935;28;20048;-61
2023/05/09 06:20:36;;;;;;;9.75;8.73;;;23.30;52.90;;;;;;5065498;28;20451;-59
2023/05/09 06:23:02;;;;;;;11.32;9.65;;;23.30;52.90;;;;;;5067976;28;20030;-60
2023/05/09 06:25:28;;;;;;;10.50;9.40;;;23.30;52.90;;;;;;5068091;28;20197;-60
2023/05/09 06:27:54;;;;;;;11.43;9.73;;;23.30;52.90;;;;;;5066745;28;20127;-61
2023/05/09 06:30:20;;;;;;;11.52;9.18;;;23.30;52.90;;;;;;5088599;28;20028;-62
2023/05/09 06:32:46;;;;;;;11.85;10.27;;;23.30;52.80;;;;;;5088847;28;20036;-62
2023/05/09 06:35:11;;;;;;;12.15;9.10;;;23.30;52.80;;;;;;5085720;28;20032;-63
2023/05/09 06:37:37;;;;;;;10.15;8.75;;;23.30;52.70;;;;;;5083130;28;20340;-62
2023/05/09 06:40:03;;;;;;;10.85;9.02;;;23.30;52.70;;;;;;5097557;28;20032;-60
2023/05/09 06:42:31;;;;;;;13.32;10.52;;;23.30;52.70;;;;;;5094286;28;20023;-60
2023/05/09 06:44:57;;;;;;;11.50;9.90;;;23.40;52.70;;;;;;5092939;28;20103;-61
2023/05/09 06:47:23;;;;;;;12.88;10.20;;;23.30;52.70;;;;;;5089948;28;20201;-59
2023/05/09 06:49:48;;;;;;;11.60;10.20;;;23.40;52.70;;;;;;5091760;28;20119;-65
2023/05/09 06:52:15;;;;;;;11.65;9.85;;;23.40;52.70;;;;;;5090918;28;20412;-60
2023/05/09 06:54:41;;;;;;;14.82;10.65;;;23.40;52.70;;;;;;5092359;28;20451;-62
2023/05/09 06:57:07;;;;;;;13.00;10.70;;;23.40;52.70;;;;;;5091739;28;20028;-61
2023/05/09 06:59:32;;;;;;;13.45;11.48;;;23.40;52.70;;;;;;5094954;28;20058;-60
2023/05/09 07:01:58;;;;;;;14.05;12.15;;;23.40;52.70;;;;;;5095746;28;20032;-60
2023/05/09 07:04:25;;;;;;;13.82;12.38;;;23.40;52.80;;;;;;5097223;28;20020;-61
2023/05/09 07:06:51;;;;;;;17.90;13.18;;;23.40;52.80;;;;;;5096144;28;20046;-63
2023/05/09 07:09:19;;;;;;;17.02;13.52;;;23.40;52.80;;;;;;5096348;28;20032;-61
2023/05/09 07:11:45;;;;;;;14.65;13.10;;;23.40;52.80;;;;;;5097244;28;20381;-61
2023/05/09 07:14:11;;;;;;;14.30;12.77;;;23.40;52.70;;;;;;5096592;28;20033;-61
2023/05/09 07:16:37;;;;;;;14.27;12.40;;;23.40;52.70;;;;;;5093021;28;20024;-60
2023/05/09 07:19:03;;;;;;;15.10;12.23;;;23.50;52.60;;;;;;5095677;28;20055;-62
2023/05/09 07:21:29;;;;;;;14.18;12.68;;;23.50;52.60;;;;;;5090659;28;20155;-63
2023/05/09 07:23:54;;;;;;;14.27;11.98;;;23.50;52.50;;;;;;5088402;28;20032;-60
2023/05/09 07:26:20;;;;;;;15.02;11.30;;;23.50;52.50;;;;;;5084499;28;20391;-60
2023/05/09 07:28:46;;;;;;;13.70;11.95;;;23.50;52.40;;;;;;5084921;28;20061;-62
2023/05/09 07:31:12;;;;;;;14.38;12.27;;;23.50;52.40;;;;;;5086112;28;20443;-59
2023/05/09 07:33:38;;;;;;;14.48;11.85;;;23.50;52.30;;;;;;5081131;28;20040;-62
2023/05/09 07:36:04;;;;;;;14.48;12.98;;;23.50;52.30;;;;;;5090400;28;20031;-59
2023/05/09 07:38:29;;;;;;;15.38;12.25;;;23.50;52.20;;;;;;5076351;28;20107;-61
2023/05/09 07:40:55;;;;;;;13.57;12.07;;;23.50;52.20;;;;;;5089671;28;20135;-61
2023/05/09 07:43:21;;;;;;;17.45;13.60;;;23.50;52.20;;;;;;5091938;28;20034;-57
2023/05/09 07:45:47;;;;;;;14.55;13.13;;;23.50;52.10;;;;;;5091729;28;20040;-62
2023/05/09 07:48:13;;;;;;;15.43;13.75;;;23.50;52.00;;;;;;5096906;28;20383;-60
2023/05/09 07:50:39;;;;;;;14.20;12.70;;;23.50;52.00;;;;;;5091858;28;20020;-62
2023/05/09 07:53:05;;;;;;;15.32;13.50;;;23.50;52.00;;;;;;5057446;28;20028;-63
2023/05/09 07:55:31;;;;;;;14.52;13.02;;;23.50;51.90;;;;;;5077698;28;20044;-59
2023/05/09 07:57:57;;;;;;;15.05;12.95;;;23.50;51.90;;;;;;5076223;28;20391;-60
2023/05/09 08:00:23;;;;;;;15.70;13.32;;;23.60;51.90;;;;;;5076468;28;20048;-60
2023/05/09 08:02:52;;;;;;;15.30;13.70;;;23.60;51.90;;;;;;5092123;28;20027;-59
2023/05/09 08:05:18;;;;;;;16.35;14.40;;;23.60;51.90;;;;;;5093255;28;20036;-59
2023/05/09 08:07:45;;;;;;;17.60;15.60;;;23.60;51.90;;;;;;5094338;28;20335;-61
2023/05/09 08:10:11;;;;;;;17.65;15.52;;;23.60;52.00;;;;;;5092633;28;20051;-61
2023/05/09 08:12:37;;;;;;;16.58;14.88;;;23.60;52.00;;;;;;5095358;28;20351;-61
2023/05/09 08:15:03;;;;;;;17.95;16.05;;;23.60;52.00;;;;;;5095127;28;20043;-61
2023/05/09 08:17:29;;;;;;;17.75;15.95;;;23.60;52.00;;;;;;5094010;28;20334;-60
2023/05/09 08:19:55;;;;;;;19.42;16.25;;;23.60;52.00;;;;;;5094010;28;20031;-61
2023/05/09 08:22:21;;;;;;;17.20;15.38;;;23.60;52.00;;;;;;5093846;28;20337;-61
2023/05/09 08:24:47;;;;;;;17.13;15.32;;;23.60;52.00;;;;;;5095868;28;20515;-62
2023/05/09 08:27:14;;;;;;;18.20;16.30;;;23.60;52.00;;;;;;5095283;28;20525;-61
2023/05/09 08:29:40;;;;;;;17.55;15.27;;;23.60;51.90;;;;;;5095780;28;20056;-61
2023/05/09 08:32:07;;;;;;;18.35;16.48;;;23.60;51.90;;;;;;5077853;28;20121;-61
2023/05/09 08:34:33;;;;;;;16.08;14.48;;;23.60;51.90;;;;;;5094545;28;20097;-61
2023/05/09 08:37:03;;;;;;;17.20;15.40;;;23.60;51.90;;;;;;5095065;28;20062;-62
2023/05/09 08:39:29;;;;;;;18.30;16.08;;;23.60;51.90;;;;;;5075103;28;20056;-59
2023/05/09 08:41:59;;;;;;;18.02;16.02;;;23.60;51.90;;;;;;5074639;28;20039;-61
2023/05/09 08:44:27;;;;;;;17.75;15.05;;;23.60;51.90;;;;;;5091463;28;20031;-62
2023/05/09 08:46:58;;;;;;;17.95;15.98;;;23.60;51.80;;;;;;5077047;28;20047;-62
2023/05/09 08:49:24;;;;;;;18.42;16.38;;;23.70;51.90;;;;;;5091634;28;20055;-59
2023/05/09 08:51:50;;;;;;;18.10;16.30;;;23.60;51.80;;;;;;5077273;28;20044;-62
2023/05/09 08:54:17;;;;;;;18.08;16.17;;;23.60;51.80;;;;;;5092584;28;20047;-62
2023/05/09 08:56:43;;;;;;;17.90;16.02;;;23.60;51.80;;;;;;5094341;28;20032;-61
2023/05/09 08:59:09;;;;;;;18.95;16.95;;;23.60;51.70;;;;;;5094573;28;20093;-62
2023/05/09 09:01:35;;;;;;;17.48;15.60;;;23.60;51.70;;;;;;5095086;28;20369;-60
2023/05/09 09:04:08;;;;;;;17.08;15.18;;;23.60;51.70;;;;;;5094051;28;20043;-64
2023/05/09 09:06:35;;;;;;;17.63;15.73;;;23.60;51.70;;;;;;5094747;28;20028;-60
2023/05/09 09:09:04;;;;;;;18.95;15.68;;;23.60;51.70;;;;;;5093273;28;20031;-60
2023/05/09 09:11:32;;;;;;;17.17;15.45;;;23.60;52.40;;;;;;5076939;28;20036;-60
2023/05/09 09:14:05;;;;;;;19.10;17.13;;;23.60;51.70;;;;;;5094748;28;20043;-61
2023/05/09 09:16:32;;;;;;;20.42;18.20;;;23.60;51.70;;;;;;5094544;28;20489;-60
2023/05/09 09:18:59;;;;;;;18.08;16.17;;;23.60;51.70;;;;;;5091834;28;20093;-59
2023/05/09 09:21:25;;;;;;;18.85;16.85;;;23.70;51.80;;;;;;5094396;28;20032;-59
2023/05/09 09:23:53;;;;;;;17.23;15.40;;;23.60;51.70;;;;;;5095105;28;20443;-61
2023/05/09 09:26:20;;;;;;;18.33;16.40;;;23.60;51.70;;;;;;5094513;28;20060;-61
2023/05/09 09:28:46;;;;;;;17.67;15.80;;;23.60;51.70;;;;;;5093499;28;20046;-61
2023/05/09 09:31:23;;;;;;;18.85;16.80;;;23.60;51.70;;;;;;5076334;28;20522;-60
2023/05/09 09:33:49;;;;;;;18.98;16.20;;;23.60;51.70;;;;;;5075489;28;20040;-60
2023/05/09 09:36:15;;;;;;;18.65;16.65;;;23.60;51.70;;;;;;5093959;28;20028;-61
2023/05/09 09:38:42;;;;;;;18.90;16.90;;;23.60;51.70;;;;;;5075976;28;20058;-60
2023/05/09 09:41:11;;;;;;;19.02;17.00;;;23.60;51.70;;;;;;5094300;28;20040;-60
2023/05/09 09:43:37;;;;;;;18.90;17.00;;;23.60;51.70;;;;;;5094078;28;20420;-62
2023/05/09 09:46:04;;;;;;;19.13;17.17;;;23.60;51.70;;;;;;5093187;28;20123;-61
2023/05/09 09:48:34;;;;;;;19.45;17.45;;;23.60;51.60;;;;;;5075232;28;20032;-62
2023/05/09 09:51:10;;;;;;;19.92;17.83;;;23.60;51.60;;;;;;5093926;28;20188;-62
2023/05/09 09:53:41;;;;;;;18.20;16.27;;;23.60;51.60;;;;;;5093829;28;20036;-61
2023/05/09 09:56:08;;;;;;;18.58;16.58;;;23.60;51.60;;;;;;5090911;28;20020;-61
2023/05/09 09:58:33;;;;;;;18.20;16.30;;;23.60;51.50;;;;;;5080476;28;20035;-57
2023/05/09 10:01:07;;;;;;;18.58;16.58;;;23.60;51.50;;;;;;5082662;28;20031;-60
2023/05/09 10:03:41;;;;;;;19.95;17.85;;;23.70;51.50;;;;;;5092596;28;20020;-60
2023/05/09 10:06:14;;;;;;;18.17;16.30;;;23.60;51.40;;;;;;5093972;28;20107;-60
2023/05/09 10:08:40;;;;;;;20.55;16.73;;;23.70;51.40;;;;;;5091122;28;20036;-61
2023/05/09 10:11:07;;;;;;;19.42;17.42;;;23.70;51.40;;;;;;5091667;28;20024;-60
2023/05/09 10:13:35;;;;;;;20.38;18.27;;;23.70;51.30;;;;;;5074041;28;20047;-61
2023/05/09 10:16:02;;;;;;;20.63;18.42;;;23.70;51.40;;;;;;5091962;28;20112;-61
2023/05/09 10:18:29;;;;;;;19.77;17.73;;;23.70;51.30;;;;;;5072186;28;20406;-59
2023/05/09 10:20:59;;;;;;;19.58;17.48;;;23.70;51.30;;;;;;5092245;28;20020;-60
2023/05/09 10:23:27;;;;;;;18.83;16.83;;;23.70;51.30;;;;;;5073242;28;20052;-60
2023/05/09 10:26:04;;;;;;;18.98;17.00;;;23.70;51.30;;;;;;5093500;28;20039;-60
2023/05/09 10:28:33;;;;;;;18.20;16.40;;;23.80;51.30;;;;;;5092236;28;20028;-63
2023/05/09 10:31:09;;;;;;;17.77;15.85;;;23.80;51.20;;;;;;5093500;28;20464;-65
2023/05/09 10:33:56;;;;;;;16.88;15.15;;;23.80;51.10;;;;;;5093965;28;20051;-62
2023/05/09 10:36:24;;;;;;;18.80;15.40;;;23.70;51.00;;;;;;5091477;28;20032;-61
2023/05/09 10:38:53;;;;;;;16.92;15.13;;;23.80;51.00;;;;;;5091163;28;20108;-60
2023/05/09 10:41:20;;;;;;;16.98;15.25;;;23.70;50.90;;;;;;5091796;28;20020;-59
2023/05/09 10:43:47;;;;;;;17.67;15.75;;;23.80;50.90;;;;;;5093370;28;20028;-60
2023/05/09 10:46:13;;;;;;;14.68;13.13;;;23.80;50.90;;;;;;5093050;28;20455;-62
2023/05/09 10:48:41;;;;;;;19.10;15.10;;;23.80;50.80;;;;;;5090141;28;20388;-60
2023/05/09 10:51:09;;;;;;;16.05;14.32;;;23.80;50.80;;;;;;5092480;28;20114;-62
2023/05/09 10:53:44;;;;;;;15.18;13.57;;;23.80;50.80;;;;;;5093554;28;20063;-62
2023/05/09 10:56:31;;;;;;;15.05;13.45;;;23.80;50.90;;;;;;5091309;28;20024;-60
2023/05/09 10:58:57;;;;;;;14.85;13.18;;;23.80;51.00;;;;;;5093033;28;20039;-60
2023/05/09 11:01:38;;;;;;;15.40;13.55;;;23.80;51.10;;;;;;5090896;28;20051;-57
2023/05/09 11:04:13;;;;;;;14.75;13.25;;;23.80;51.30;;;;;;5073387;28;20039;-62
2023/05/09 11:06:44;;;;;;;15.00;13.02;;;23.90;51.40;;;;;;5073136;28;20036;-61
2023/05/09 11:09:33;;;;;;;16.52;14.25;;;23.90;51.50;;;;;;5087897;28;20024;-61
2023/05/09 11:12:05;;;;;;;17.50;15.52;;;23.80;51.50;;;;;;5087970;28;20036;-61
2023/05/09 11:14:52;;;;;;;17.27;15.50;;;23.90;51.60;;;;;;5092848;28;20039;-56
2023/05/09 11:17:27;;;;;;;19.20;17.20;;;23.90;51.70;;;;;;5091158;28;20028;-61
2023/05/09 11:20:08;;;;;;;21.98;18.55;;;23.90;51.70;;;;;;5092113;28;20355;-58
2023/05/09 11:22:45;;;;;;;22.70;20.23;;;23.90;51.80;;;;;;5096064;28;20447;-61
2023/05/09 11:25:15;;;;;;;23.58;21.08;;;23.90;51.80;;;;;;5096956;28;20063;-61
2023/05/09 11:27:48;;;;;;;23.50;21.02;;;23.90;51.90;;;;;;5096098;28;20032;-62
2023/05/09 11:30:16;;;;;;;24.02;21.45;;;24.00;52.00;;;;;;5097247;28;20077;-61
2023/05/09 11:32:46;;;;;;;24.27;21.67;;;24.00;52.00;;;;;;5096958;28;20035;-60
2023/05/09 11:35:19;;;;;;;24.00;21.52;;;24.00;52.10;;;;;;5094317;28;20067;-61
2023/05/09 11:37:45;;;;;;;25.95;23.20;;;24.00;52.10;;;;;;5085595;28;20101;-61
2023/05/09 11:40:19;;;;;;;24.77;22.13;;;24.00;52.10;;;;;;5094900;28;20044;-60
2023/05/09 11:43:00;;;;;;;23.23;19.70;;;24.00;52.20;;;;;;5047436;28;20075;-59
2023/05/09 11:45:33;;;;;;;20.02;17.90;;;24.00;52.10;;;;;;5076526;28;20147;-59
2023/05/09 11:48:10;;;;;;;21.60;19.40;;;24.00;52.10;;;;;;5088766;28;20509;-64
2023/05/09 11:50:46;;;;;;;21.40;18.85;;;24.00;52.00;;;;;;5092286;28;20324;-60
2023/05/09 11:53:12;;;;;;;21.50;19.20;;;24.00;52.00;;;;;;5094243;28;20077;-59
2023/05/09 11:55:40;;;;;;;22.80;20.10;;;24.00;52.10;;;;;;5095183;28;20036;-61
2023/05/09 11:58:11;;;;;;;22.05;19.55;;;24.00;52.20;;;;;;5094793;28;20039;-62
2023/05/09 12:00:47;;;;;;;18.90;16.90;;;24.00;52.20;;;;;;5092895;28;20119;-61
2023/05/09 12:03:18;;;;;;;19.08;16.55;;;24.00;52.10;;;;;;5083379;28;20043;-61
2023/05/09 12:05:49;;;;;;;18.25;16.27;;;24.00;52.00;;;;;;5089002;28;20089;-60
2023/05/09 12:08:28;;;;;;;18.17;16.00;;;23.90;52.00;;;;;;5065503;28;20037;-63
2023/05/09 12:11:09;;;;;;;17.40;15.55;;;24.00;52.00;;;;;;5083462;28;20043;-63
2023/05/09 12:13:43;;;;;;;17.55;15.65;;;23.90;51.90;;;;;;5100121;28;20097;-62
2023/05/09 12:16:12;;;;;;;18.33;15.98;;;24.00;51.90;;;;;;5096100;28;20435;-63
2023/05/09 12:18:45;;;;;;;16.08;14.38;;;23.90;51.80;;;;;;5094842;28;20035;-64
2023/05/09 12:21:11;;;;;;;15.77;14.18;;;23.90;51.80;;;;;;5078048;28;20032;-61
2023/05/09 12:23:46;;;;;;;15.00;12.75;;;23.90;51.80;;;;;;5095751;28;20035;-62
2023/05/09 12:26:17;;;;;;;15.68;13.93;;;23.90;51.70;;;;;;5095772;28;20122;-62
2023/05/09 12:28:54;;;;;;;14.70;13.07;;;23.90;51.70;;;;;;5061085;28;20028;-63
2023/05/09 12:31:28;;;;;;;14.52;13.02;;;23.90;51.60;;;;;;5085150;28;20024;-64
2023/05/09 12:33:56;;;;;;;13.55;12.20;;;23.90;51.60;;;;;;5061968;28;20082;-64
2023/05/09 12:36:23;;;;;;;13.70;12.20;;;23.90;51.60;;;;;;5095139;28;20111;-63
2023/05/09 12:38:56;;;;;;;13.35;11.95;;;23.90;51.50;;;;;;5077893;28;20470;-62